createdAt,value
2018-04-26T00:00:12.993Z,54.83
2018-04-26T00:02:41.544Z,54.64
2018-04-26T00:05:10.026Z,55.34
2018-04-26T00:07:38.448Z,55.14
2018-04-26T00:10:07.398Z,54.84
2018-04-26T00:12:35.687Z,55.11
2018-04-26T00:15:05.913Z,55.45
2018-04-26T00:17:34.167Z,55.41
2018-04-26T00:20:06.874Z,55.25
2018-04-26T00:22:35.142Z,55.22
2018-04-26T00:25:06.935Z,54.90
2018-04-26T00:27:35.210Z,55.98
2018-04-26T00:30:06.718Z,56.02
2018-04-26T00:32:34.981Z,56.60
2018-04-26T00:35:06.403Z,56.15
2018-04-26T00:37:34.670Z,56.70
2018-04-26T00:40:06.733Z,57.36
2018-04-26T00:42:35.003Z,57.50
2018-04-26T00:45:07.015Z,57.81
2018-04-26T00:47:35.455Z,57.90
2018-04-26T00:50:07.461Z,57.78
2018-04-26T00:52:35.799Z,58.01
2018-04-26T00:55:07.784Z,57.82
2018-04-26T00:57:36.208Z,57.81
2018-04-26T01:00:06.402Z,57.89
2018-04-26T01:02:34.809Z,58.44
2018-04-26T01:05:06.964Z,58.46
2018-04-26T01:07:35.251Z,59.25
2018-04-26T01:10:07.382Z,59.79
2018-04-26T01:12:35.660Z,60.03
2018-04-26T01:15:08.624Z,59.74
2018-04-26T01:17:36.915Z,59.55
2018-04-26T01:20:06.346Z,59.99
2018-04-26T01:22:34.614Z,60.21
2018-04-26T01:25:06.770Z,60.45
2018-04-26T01:27:35.050Z,60.35
2018-04-26T01:30:07.150Z,60.06
2018-04-26T01:32:35.447Z,60.45
2018-04-26T01:35:08.432Z,60.52
2018-04-26T01:37:48.461Z,60.77
2018-04-26T01:40:16.991Z,61.72
2018-04-26T01:42:45.402Z,61.53
2018-04-26T01:45:13.664Z,61.78
2018-04-26T01:47:42.146Z,62.40
2018-04-26T01:50:11.301Z,62.00
2018-04-26T01:52:39.607Z,61.92
2018-04-26T01:55:07.873Z,62.12
2018-04-26T01:57:36.187Z,62.55
2018-04-26T02:00:08.132Z,62.59
2018-04-26T02:02:36.419Z,62.34
2018-04-26T02:05:06.397Z,62.75
2018-04-26T02:07:34.685Z,62.71
2018-04-26T02:10:05.960Z,63.17
2018-04-26T02:12:34.260Z,63.41
2018-04-26T02:15:06.163Z,63.01
2018-04-26T02:17:34.564Z,63.12
2018-04-26T02:20:05.975Z,64.02
2018-04-26T02:22:34.265Z,63.68
2018-04-26T02:25:06.347Z,63.40
2018-04-26T02:27:34.727Z,63.52
2018-04-26T02:30:06.159Z,63.97
2018-04-26T02:32:34.438Z,63.82
2018-04-26T02:35:09.476Z,64.84
2018-04-26T02:37:37.744Z,64.63
2018-04-26T02:40:06.098Z,64.47
2018-04-26T02:42:34.357Z,64.05
2018-04-26T02:45:09.440Z,64.15
2018-04-26T02:47:37.728Z,64.82
2018-04-26T02:50:06.007Z,65.20
2018-04-26T02:52:34.277Z,64.66
2018-04-26T02:55:06.635Z,64.69
2018-04-26T02:57:35.031Z,64.70
2018-04-26T03:00:06.183Z,64.47
2018-04-26T03:02:34.455Z,64.14
2018-04-26T03:05:05.871Z,64.63
2018-04-26T03:07:34.146Z,64.14
2018-04-26T03:10:05.444Z,63.77
2018-04-26T03:12:34.020Z,63.65
2018-04-26T03:15:05.412Z,64.21
2018-04-26T03:17:33.868Z,63.74
2018-04-26T03:20:05.699Z,64.11
2018-04-26T03:22:33.940Z,64.13
2018-04-26T03:25:05.824Z,64.10
2018-04-26T03:27:34.135Z,64.19
2018-04-26T03:30:05.490Z,64.58
2018-04-26T03:32:34.047Z,64.95
2018-04-26T03:35:05.812Z,64.58
2018-04-26T03:37:34.100Z,64.79
2018-04-26T03:40:09.088Z,65.12
2018-04-26T03:42:37.693Z,64.74
2018-04-26T03:45:06.324Z,65.50
2018-04-26T03:47:34.847Z,65.72
2018-04-26T03:50:06.962Z,65.71
2018-04-26T03:52:35.484Z,66.42
2018-04-26T03:55:07.166Z,66.96
2018-04-26T03:57:35.635Z,66.95
2018-04-26T04:00:19.480Z,66.17
2018-04-26T04:02:59.607Z,66.38
2018-04-26T04:05:39.527Z,66.17
2018-04-26T04:08:07.819Z,66.20
2018-04-26T04:10:36.112Z,66.74
2018-04-26T04:13:04.399Z,66.93
2018-04-26T04:15:32.672Z,66.72
2018-04-26T04:18:01.063Z,66.24
2018-04-26T04:20:29.335Z,66.77
2018-04-26T04:22:57.751Z,67.09
2018-04-26T04:25:26.023Z,66.90
2018-04-26T04:27:54.331Z,67.13
2018-04-26T04:30:22.970Z,66.84
2018-04-26T04:32:51.224Z,67.74
2018-04-26T04:35:19.556Z,68.15
2018-04-26T04:37:47.799Z,69.36
2018-04-26T04:40:16.259Z,69.54
2018-04-26T04:42:44.743Z,69.80
2018-04-26T04:45:13.066Z,69.57
2018-04-26T04:47:41.327Z,69.44
2018-04-26T04:50:09.603Z,69.83
2018-04-26T04:52:38.155Z,69.99
2018-04-26T04:55:06.449Z,70.33
2018-04-26T04:57:34.726Z,71.08
2018-04-26T05:00:06.657Z,70.92
2018-04-26T05:02:34.928Z,70.80
2018-04-26T05:05:07.084Z,70.34
2018-04-26T05:07:35.350Z,70.71
2018-04-26T05:10:07.349Z,71.02
2018-04-26T05:12:35.620Z,70.72
2018-04-26T05:15:07.637Z,71.08
2018-04-26T05:17:35.966Z,71.09
2018-04-26T05:20:07.367Z,71.96
2018-04-26T05:22:35.797Z,71.85
2018-04-26T05:25:07.883Z,71.37
2018-04-26T05:27:36.324Z,71.60
2018-04-26T05:30:06.514Z,71.71
2018-04-26T05:32:34.744Z,72.25
2018-04-26T05:35:06.477Z,72.29
2018-04-26T05:37:34.911Z,72.01
2018-04-26T05:40:06.949Z,72.88
2018-04-26T05:42:35.255Z,72.51
2018-04-26T05:45:07.077Z,72.34
2018-04-26T05:47:35.401Z,71.52
2018-04-26T05:50:07.295Z,72.50
2018-04-26T05:52:35.874Z,72.89
2018-04-26T05:55:07.690Z,71.12
2018-04-26T05:57:36.002Z,70.29
2018-04-26T06:00:07.210Z,69.06
2018-04-26T06:02:35.496Z,68.89
2018-04-26T06:05:06.265Z,68.85
2018-04-26T06:07:34.567Z,68.21
2018-04-26T06:10:06.747Z,68.54
2018-04-26T06:12:35.311Z,68.04
2018-04-26T06:15:06.540Z,67.12
2018-04-26T06:17:34.999Z,66.60
2018-04-26T06:20:07.043Z,66.12
2018-04-26T06:22:35.371Z,65.79
2018-04-26T06:25:07.650Z,65.25
2018-04-26T06:27:35.970Z,65.04
2018-04-26T06:30:08.197Z,64.28
2018-04-26T06:32:36.672Z,63.20
2018-04-26T06:35:06.851Z,63.39
2018-04-26T06:37:35.145Z,64.07
2018-04-26T06:40:06.334Z,65.17
2018-04-26T06:42:34.607Z,65.21
2018-04-26T06:45:09.773Z,64.90
2018-04-26T06:47:38.046Z,65.61
2018-04-26T06:50:06.531Z,65.65
2018-04-26T06:52:34.819Z,66.00
2018-04-26T06:55:06.726Z,65.25
2018-04-26T06:57:34.994Z,65.77
2018-04-26T07:00:07.020Z,65.60
2018-04-26T07:02:35.283Z,65.73
2018-04-26T07:05:06.620Z,65.05
2018-04-26T07:07:34.898Z,64.67
2018-04-26T07:10:09.029Z,63.92
2018-04-26T07:12:37.295Z,63.17
2018-04-26T07:15:06.507Z,62.23
2018-04-26T07:17:35.040Z,62.37
2018-04-26T07:20:07.041Z,61.37
2018-04-26T07:22:35.448Z,61.56
2018-04-26T07:25:07.843Z,61.15
2018-04-26T07:27:36.145Z,61.73
2018-04-26T07:30:08.059Z,61.45
2018-04-26T07:32:36.351Z,61.32
2018-04-26T07:35:09.378Z,60.93
2018-04-26T07:37:37.923Z,60.00
2018-04-26T07:40:06.294Z,60.32
2018-04-26T07:42:34.581Z,59.15
2018-04-26T07:45:06.234Z,57.97
2018-04-26T07:47:34.568Z,57.90
2018-04-26T07:50:06.760Z,58.00
2018-04-26T07:52:35.053Z,58.33
2018-04-26T07:55:08.975Z,58.40
2018-04-26T07:57:37.264Z,59.82
2018-04-26T08:00:06.707Z,59.40
2018-04-26T08:02:35.012Z,59.44
2018-04-26T08:05:06.588Z,58.66
2018-04-26T08:07:34.847Z,59.70
2018-04-26T08:10:08.880Z,59.77
2018-04-26T08:12:37.168Z,58.84
2018-04-26T08:15:06.696Z,58.54
2018-04-26T08:17:35.005Z,58.81
2018-04-26T08:20:09.039Z,57.99
2018-04-26T08:22:37.327Z,57.56
2018-04-26T08:25:06.466Z,58.53
2018-04-26T08:27:34.748Z,57.99
2018-04-26T08:30:10.116Z,57.06
2018-04-26T08:32:38.398Z,56.73
2018-04-26T08:35:06.887Z,57.17
2018-04-26T08:37:35.148Z,56.54
2018-04-26T08:40:06.703Z,56.75
2018-04-26T08:42:35.083Z,56.05
2018-04-26T08:45:06.736Z,56.53
2018-04-26T08:47:35.025Z,57.35
2018-04-26T08:50:06.399Z,57.07
2018-04-26T08:52:34.844Z,56.14
2018-04-26T08:55:09.963Z,55.23
2018-04-26T08:57:38.250Z,55.82
2018-04-26T09:00:06.528Z,55.11
2018-04-26T09:02:34.823Z,53.69
2018-04-26T09:05:09.849Z,53.08
2018-04-26T09:07:38.138Z,51.97
2018-04-26T09:10:06.697Z,51.05
2018-04-26T09:12:34.996Z,52.07
2018-04-26T09:15:07.486Z,51.92
2018-04-26T09:17:35.790Z,53.54
2018-04-26T09:20:07.118Z,54.79
2018-04-26T09:22:35.563Z,54.97
2018-04-26T09:25:07.609Z,55.39
2018-04-26T09:27:35.890Z,55.42
2018-04-26T09:30:08.177Z,55.71
2018-04-26T09:32:36.573Z,55.21
2018-04-26T09:35:06.463Z,55.53
2018-04-26T09:37:34.769Z,55.26
2018-04-26T09:40:06.642Z,55.71
2018-04-26T09:42:34.935Z,54.92
2018-04-26T09:45:07.976Z,55.26
2018-04-26T09:47:36.272Z,54.99
2018-04-26T09:50:08.248Z,54.80
2018-04-26T09:52:36.619Z,53.32
2018-04-26T09:55:06.793Z,53.76
2018-04-26T09:57:35.074Z,53.40
2018-04-26T10:00:08.998Z,53.90
2018-04-26T10:02:43.572Z,54.04
2018-04-26T10:05:11.904Z,52.58
2018-04-26T10:07:40.367Z,52.80
2018-04-26T10:10:08.657Z,49.84
2018-04-26T10:12:36.944Z,48.38
2018-04-26T10:15:06.961Z,47.50
2018-04-26T10:17:35.414Z,46.99
2018-04-26T10:20:07.123Z,47.48
2018-04-26T10:22:35.466Z,46.68
2018-04-26T10:25:07.272Z,46.61
2018-04-26T10:27:35.476Z,48.38
2018-04-26T10:30:07.330Z,48.29
2018-04-26T10:32:35.612Z,47.38
2018-04-26T10:35:07.498Z,46.40
2018-04-26T10:37:35.797Z,45.66
2018-04-26T10:40:06.591Z,45.65
2018-04-26T10:42:34.854Z,46.87
2018-04-26T10:45:10.074Z,49.68
2018-04-26T10:47:38.551Z,52.27
2018-04-26T10:50:06.835Z,55.12
2018-04-26T10:52:35.110Z,58.18
2018-04-26T10:55:09.140Z,58.59
2018-04-26T10:57:37.404Z,55.91
2018-04-26T11:00:07.436Z,56.10
2018-04-26T11:02:36.130Z,53.03
2018-04-26T11:05:08.431Z,53.18
2018-04-26T11:07:36.687Z,49.78
2018-04-26T11:10:05.894Z,47.34
2018-04-26T11:12:34.162Z,46.07
2018-04-26T11:15:08.116Z,47.34
2018-04-26T11:17:36.642Z,46.34
2018-04-26T11:20:05.826Z,45.54
2018-04-26T11:22:34.371Z,45.64
2018-04-26T11:25:06.370Z,47.36
2018-04-26T11:27:34.682Z,47.27
2018-04-26T11:30:06.867Z,46.56
2018-04-26T11:32:35.135Z,47.77
2018-04-26T11:35:07.147Z,46.15
2018-04-26T11:37:35.638Z,44.65
2018-04-26T11:40:08.688Z,45.02
2018-04-26T11:42:37.121Z,45.65
2018-04-26T11:45:05.915Z,45.40
2018-04-26T11:47:34.175Z,46.08
2018-04-26T11:50:06.303Z,47.63
2018-04-26T11:52:34.611Z,48.09
2018-04-26T11:55:06.068Z,45.51
2018-04-26T11:57:34.374Z,44.62
2018-04-26T12:00:05.582Z,42.54
2018-04-26T12:02:34.176Z,41.40
2018-04-26T12:05:05.775Z,41.45
2018-04-26T12:07:34.210Z,41.21
2018-04-26T12:10:05.919Z,41.10
2018-04-26T12:12:34.221Z,41.68
2018-04-26T12:15:08.266Z,43.03
2018-04-26T12:17:36.535Z,42.78
2018-04-26T12:20:05.961Z,44.24
2018-04-26T12:22:34.238Z,43.01
2018-04-26T12:25:05.675Z,43.17
2018-04-26T12:27:34.147Z,44.04
2018-04-26T12:30:08.210Z,45.69
2018-04-26T12:32:36.487Z,43.18
2018-04-26T12:35:06.033Z,42.96
2018-04-26T12:37:34.650Z,43.17
2018-04-26T12:40:06.474Z,40.25
2018-04-26T12:42:34.807Z,40.33
2018-04-26T12:45:06.564Z,38.59
2018-04-26T12:47:34.826Z,39.20
2018-04-26T12:50:06.065Z,39.74
2018-04-26T12:52:34.758Z,39.88
2018-04-26T12:55:06.361Z,41.28
2018-04-26T12:57:34.802Z,40.70
2018-04-26T13:00:06.744Z,41.02
2018-04-26T13:02:35.012Z,41.78
2018-04-26T13:05:07.281Z,41.09
2018-04-26T13:07:35.557Z,41.61
2018-04-26T13:10:05.715Z,40.75
2018-04-26T13:12:34.016Z,43.20
2018-04-26T13:15:05.440Z,41.73
2018-04-26T13:17:33.821Z,43.23
2018-04-26T13:20:05.162Z,38.17
2018-04-26T13:22:33.593Z,36.68
2018-04-26T13:25:08.604Z,35.14
2018-04-26T13:27:37.118Z,36.63
2018-04-26T13:30:06.536Z,37.11
2018-04-26T13:32:34.830Z,37.91
2018-04-26T13:35:06.944Z,39.47
2018-04-26T13:37:35.266Z,39.67
2018-04-26T13:40:06.479Z,39.34
2018-04-26T13:42:34.772Z,39.91
2018-04-26T13:45:06.903Z,39.89
2018-04-26T13:47:35.203Z,38.96
2018-04-26T13:50:07.335Z,39.34
2018-04-26T13:52:35.725Z,38.58
2018-04-26T13:55:05.631Z,38.00
2018-04-26T13:57:33.975Z,36.84
2018-04-26T14:00:06.931Z,36.36
2018-04-26T14:02:35.468Z,36.10
2018-04-26T14:05:06.630Z,37.06
2018-04-26T14:07:34.896Z,38.26
2018-04-26T14:10:07.105Z,39.92
2018-04-26T14:12:35.375Z,39.05
2018-04-26T14:15:07.207Z,38.61
2018-04-26T14:17:35.686Z,40.00
2018-04-26T14:20:08.997Z,39.14
2018-04-26T14:22:37.274Z,39.12
2018-04-26T14:25:06.179Z,37.66
2018-04-26T14:27:34.459Z,37.80
2018-04-26T14:30:06.619Z,38.66
2018-04-26T14:32:34.909Z,37.83
2018-04-26T14:35:06.933Z,35.90
2018-04-26T14:37:35.438Z,36.33
2018-04-26T14:40:07.284Z,35.81
2018-04-26T14:42:35.580Z,36.98
2018-04-26T14:45:05.748Z,37.86
2018-04-26T14:47:34.035Z,37.34
2018-04-26T14:50:09.294Z,38.30
2018-04-26T14:52:37.733Z,38.67
2018-04-26T14:55:05.995Z,39.85
2018-04-26T14:57:34.517Z,40.42
2018-04-26T15:00:06.002Z,41.16
2018-04-26T15:02:34.278Z,44.34
2018-04-26T15:05:05.573Z,45.33
2018-04-26T15:07:33.899Z,47.51
2018-04-26T15:10:05.155Z,48.60
2018-04-26T15:12:33.553Z,48.95
2018-04-26T15:15:05.943Z,51.45
2018-04-26T15:17:34.260Z,54.83
2018-04-26T15:20:05.536Z,51.27
2018-04-26T15:22:33.828Z,50.35
2018-04-26T15:25:05.571Z,47.02
2018-04-26T15:27:33.863Z,45.18
2018-04-26T15:30:05.173Z,43.99
2018-04-26T15:32:33.455Z,45.05
2018-04-26T15:35:08.091Z,43.72
2018-04-26T15:37:36.376Z,42.96
2018-04-26T15:40:05.996Z,44.13
2018-04-26T15:42:34.289Z,43.87
2018-04-26T15:45:09.195Z,44.25
2018-04-26T15:47:37.463Z,44.87
2018-04-26T15:50:05.874Z,44.67
2018-04-26T15:52:51.550Z,44.17
2018-04-26T15:55:31.425Z,44.82
2018-04-26T15:58:11.500Z,43.83
2018-04-26T16:00:56.999Z,44.20
2018-04-26T16:03:37.146Z,45.13
2018-04-26T16:09:21.836Z,44.08
2018-04-26T16:12:01.842Z,42.69
2018-04-26T16:14:42.025Z,41.81
2018-04-26T16:17:29.239Z,42.62
2018-04-26T16:20:18.651Z,42.06
2018-04-26T16:23:04.324Z,40.59
2018-04-26T16:25:44.317Z,41.27
2018-04-26T16:28:30.011Z,42.07
2018-04-26T16:31:15.647Z,41.45
2018-04-26T16:33:55.748Z,41.13
2018-04-26T16:36:35.759Z,41.31
2018-04-26T16:39:15.856Z,41.44
2018-04-26T16:41:44.148Z,41.51
2018-04-26T16:44:12.420Z,40.96
2018-04-26T16:46:40.705Z,40.38
2018-04-26T16:49:09.208Z,39.90
2018-04-26T16:51:37.492Z,41.15
2018-04-26T16:54:05.767Z,41.44
2018-04-26T16:56:34.059Z,42.06
2018-04-26T16:59:02.335Z,41.67
2018-04-26T17:01:30.928Z,42.05
2018-04-26T17:03:59.184Z,41.73
2018-04-26T17:06:27.467Z,42.25
2018-04-26T17:08:55.750Z,42.45
2018-04-26T17:11:24.039Z,42.71
2018-04-26T17:13:52.321Z,43.45
2018-04-26T17:16:20.591Z,43.52
2018-04-26T17:18:48.883Z,44.08
2018-04-26T17:21:17.176Z,45.08
2018-04-26T17:23:45.715Z,46.25
2018-04-26T17:26:13.978Z,44.60
2018-04-26T17:28:42.274Z,43.99
2018-04-26T17:31:10.548Z,44.29
2018-04-26T17:33:38.849Z,45.36
2018-04-26T17:36:07.115Z,45.68
2018-04-26T17:38:35.690Z,45.43
2018-04-26T17:41:03.959Z,45.71
2018-04-26T17:43:32.296Z,45.87
2018-04-26T17:46:00.568Z,46.11
2018-04-26T17:48:28.864Z,46.97
2018-04-26T17:50:57.174Z,47.02
2018-04-26T17:53:25.550Z,47.00
2018-04-26T17:55:53.841Z,47.14
2018-04-26T17:58:22.229Z,46.88
2018-04-26T18:00:50.423Z,47.27
2018-04-26T18:03:18.715Z,47.34
2018-04-26T18:05:46.995Z,47.93
2018-04-26T18:08:15.279Z,47.68
2018-04-26T18:10:43.576Z,47.23
2018-04-26T18:13:11.854Z,47.59
2018-04-26T18:15:40.175Z,48.26
2018-04-26T18:18:08.448Z,47.67
2018-04-26T18:20:36.742Z,47.99
2018-04-26T18:23:05.007Z,48.13
2018-04-26T18:25:34.315Z,48.03
2018-04-26T18:28:03.076Z,48.15
2018-04-26T18:30:31.331Z,48.58
2018-04-26T18:32:59.801Z,48.84
2018-04-26T18:35:28.115Z,49.98
2018-04-26T18:37:56.383Z,50.63
2018-04-26T18:40:24.664Z,48.91
2018-04-26T18:42:52.964Z,48.79
2018-04-26T18:45:21.241Z,48.18
2018-04-26T18:47:49.550Z,48.06
2018-04-26T18:50:17.822Z,47.84
2018-04-26T18:52:46.134Z,48.83
2018-04-26T18:55:14.611Z,49.19
2018-04-26T18:57:42.951Z,49.16
2018-04-26T19:00:11.198Z,48.64
2018-04-26T19:02:39.496Z,48.96
2018-04-26T19:05:07.788Z,49.09
2018-04-26T19:07:36.112Z,48.56
2018-04-26T19:10:06.281Z,49.29
2018-04-26T19:12:34.571Z,49.83
2018-04-26T19:15:06.429Z,50.17
2018-04-26T19:17:34.823Z,50.27
2018-04-26T19:20:06.815Z,50.34
2018-04-26T19:22:35.112Z,50.23
2018-04-26T19:25:07.284Z,50.86
2018-04-26T19:27:36.217Z,50.46
2018-04-26T19:30:06.155Z,50.56
2018-04-26T19:32:34.827Z,51.03
2018-04-26T19:35:06.260Z,50.63
2018-04-26T19:37:34.542Z,50.34
2018-04-26T19:40:05.966Z,50.40
2018-04-26T19:42:34.246Z,50.98
2018-04-26T19:45:05.676Z,51.16
2018-04-26T19:47:33.939Z,51.73
2018-04-26T19:50:08.544Z,52.97
2018-04-26T19:52:36.834Z,51.64
2018-04-26T19:55:06.937Z,52.84
2018-04-26T19:57:35.455Z,52.77
2018-04-26T20:00:07.296Z,52.77
2018-04-26T20:02:35.588Z,53.08
2018-04-26T20:05:07.199Z,53.50
2018-04-26T20:07:35.487Z,54.08
2018-04-26T20:10:06.995Z,54.31
2018-04-26T20:12:35.300Z,55.00
2018-04-26T20:15:06.686Z,55.01
2018-04-26T20:17:34.976Z,55.21
2018-04-26T20:20:07.198Z,55.86
2018-04-26T20:22:35.523Z,55.78
2018-04-26T20:25:07.653Z,55.90
2018-04-26T20:27:35.938Z,56.16
2018-04-26T20:30:08.035Z,57.45
2018-04-26T20:32:36.326Z,56.94
2018-04-26T20:35:09.416Z,57.24
2018-04-26T20:37:37.695Z,57.86
2018-04-26T20:40:06.901Z,57.55
2018-04-26T20:42:35.196Z,58.13
2018-04-26T20:45:06.393Z,58.22
2018-04-26T20:47:34.691Z,58.08
2018-04-26T20:50:06.514Z,57.98
2018-04-26T20:52:35.000Z,58.37
2018-04-26T20:55:06.403Z,58.57
2018-04-26T20:57:34.968Z,58.65
2018-04-26T21:00:06.364Z,58.52
2018-04-26T21:02:34.849Z,58.62
2018-04-26T21:05:06.710Z,58.75
2018-04-26T21:07:34.980Z,58.77
2018-04-26T21:10:06.370Z,58.66
2018-04-26T21:12:35.123Z,58.71
2018-04-26T21:15:07.051Z,58.60
2018-04-26T21:17:35.371Z,58.68
2018-04-26T21:20:07.355Z,58.51
2018-04-26T21:22:35.645Z,58.33
2018-04-26T21:25:07.555Z,58.37
2018-04-26T21:27:35.860Z,58.40
2018-04-26T21:30:07.974Z,58.62
2018-04-26T21:32:36.527Z,58.37
2018-04-26T21:35:06.360Z,58.20
2018-04-26T21:37:34.921Z,58.38
2018-04-26T21:40:07.929Z,58.41
2018-04-26T21:42:36.205Z,58.44
2018-04-26T21:45:07.631Z,58.90
2018-04-26T21:47:35.921Z,58.66
2018-04-26T21:50:13.497Z,58.58
2018-04-26T21:52:47.455Z,59.08
2018-04-26T21:55:21.431Z,58.85
2018-04-26T21:57:55.325Z,59.68
2018-04-26T22:00:29.187Z,59.59
2018-04-26T22:02:56.902Z,60.41
2018-04-26T22:05:27.567Z,60.52
2018-04-26T22:07:56.124Z,60.75
2018-04-26T22:10:24.406Z,61.61
2018-04-26T22:12:52.691Z,61.47
2018-04-26T22:15:20.955Z,61.95
2018-04-26T22:17:49.414Z,61.85
2018-04-26T22:20:17.686Z,62.23
2018-04-26T22:22:45.977Z,62.76
2018-04-26T22:25:14.250Z,62.82
2018-04-26T22:27:42.642Z,63.25
2018-04-26T22:30:11.106Z,63.20
2018-04-26T22:32:39.595Z,63.71
2018-04-26T22:35:08.627Z,64.51
2018-04-26T22:37:37.070Z,64.80
2018-04-26T22:40:06.183Z,65.23
2018-04-26T22:42:34.767Z,65.87
2018-04-26T22:45:06.503Z,66.40
2018-04-26T22:47:34.796Z,66.07
2018-04-26T22:50:05.526Z,66.27
2018-04-26T22:52:33.808Z,66.07
2018-04-26T22:55:05.255Z,66.56
2018-04-26T22:57:33.654Z,66.69
2018-04-26T23:00:05.160Z,67.17
2018-04-26T23:02:33.429Z,67.50
2018-04-26T23:05:05.539Z,67.43
2018-04-26T23:07:33.813Z,67.87
2018-04-26T23:10:02.103Z,67.97
2018-04-26T23:12:30.367Z,67.79
2018-04-26T23:14:58.651Z,67.60
2018-04-26T23:17:26.918Z,67.60
2018-04-26T23:19:55.219Z,68.66
2018-04-26T23:22:23.477Z,69.28
2018-04-26T23:24:51.818Z,69.41
2018-04-26T23:27:20.303Z,70.02
2018-04-26T23:29:48.582Z,69.74
2018-04-26T23:32:16.907Z,70.09
2018-04-26T23:34:45.283Z,69.87
2018-04-26T23:37:13.819Z,70.49
2018-04-26T23:39:42.091Z,70.16
2018-04-26T23:42:10.427Z,69.99
2018-04-26T23:44:38.694Z,70.12
2018-04-26T23:47:06.986Z,69.92
2018-04-26T23:49:35.260Z,70.05
2018-04-26T23:52:03.607Z,70.17
2018-04-26T23:54:32.051Z,71.18
2018-04-26T23:57:00.336Z,71.23
2018-04-26T23:59:28.592Z,71.17
